Houston, TX

2:49 AM CDT on April 29, 2017 (GMT -0500)
Daintrees Corner, First Ward | | Change Station

Elev 49 ft 29.77 °N, 95.37 °W | Updated 19 seconds ago

Overcast
Overcast
80.1 °F
Feels Like 84 °F
N
7.0
Wind Variable Wind from ENE

Today
High -- | Low -- °F
--% Chance of Precip.
Yesterday
High -- | Low -- °F
Precip. -- in
Pressure 29.64 in
Visibility 4.0 miles
Clouds Mostly Cloudy 1100 ft
Overcast 1700 ft
Heat Index 84 °F
Dew Point 72 °F
Humidity 76%
Rainfall 0.00 in
Snow Depth Not available.
6:40 AM 7:57 PM
Waxing Crescent, 12% visible
METAR KMCJ 290735Z AUTO 15021G32KT 4SM BKN011 OVC017 26/23 A2964 RMK AO1
Pressure 29.64 in
Visibility 4.0 miles
Clouds Mostly Cloudy 1100 ft
Overcast 1700 ft
Heat Index 84 °F
Dew Point 72 °F
Humidity 76%
Rainfall 0.00 in
Snow Depth Not available.
6:40 AM 7:57 PM
Waxing Crescent, 12% visible
METAR KMCJ 290735Z AUTO 15021G32KT 4SM BKN011 OVC017 26/23 A2964 RMK AO1

Get Severe Weather Alerts

Thanks for signing up!

Be on the lookout for a verification email in your inbox.

You'll start receiving the daily forecast at 8 AM.

×

10-Day Weather Forecast

Almanac

Astronomy

Apr. 29, 2017 Rise Set
Actual Time
Civil Twilight
Nautical Twilight
Astronomical Twilight
Moon
Length of Visible Light
Length of Day
Tomorrow will be .
, % of the Moon is Illuminated

Today's Extremes

State Highs State Lows

Community

WunderPhotos

WunderBlog® & News

Nearby

Air Quality

  Air Quality AQ Index Pollutant
Not available.

Snow Depth

Station Depth Elevation

Earthquake Activity

City Distance Mag. Time & Date
Minimum magnitude displayed is 2.5.

Coastal Water Temperatures

Place Temperature

Stations

Nearby Weather Stations

Station Location Temp. Windchill Dew Point Humidity Wind Precip. Elev Updated Type
                   

Watches & Warnings

There are currently no watches in effect.